Impacts TAF Board
For situational awareness. Not to be used for flight planning purposes.
IDs:

KEWR - Newark Intl, NJ, US

Issued at 0836 UTC 15 Dec 2018
Updated at 1057 UTC 15 Dec 2018
Potential Impact None Slight Moderate High
Time<<15/23Z 16/00Z 16/01Z 16/02Z 16/03Z 16/04Z 16/05Z 16/06Z 16/07Z 16/08Z 16/09Z 16/10Z 16/11Z>>
Type PRVL PRVL PRVL PRVL PRVL PRVL PRVL PRVL PRVL PRVL PRVL PRVL PRVL
VIS >6 >6 >6 >6 >6 >6 >6 >6 >6 >6 3 3 3
CIG 200 200 200 200 200 200 50 50 50 50 15 15 15
Cover BKN BKN BKN BKN BKN BKN BKN BKN BKN BKN OVC OVC OVC
FltCat VFR VFR VFR VFR VFR VFR VFR VFR VFR VFR MVFR MVFR MVFR
WX -- -- -- -- -- -- -- -- -- -- -RA BR -RA BR -RA BR
WDir 20 20 20 20 20 20 30 30 30 30 30 30 30
WSpd 10 10 10 10 10 10 10 10 10 10 14 14 14
WGst 16 16 16 16 16 16 17 17 17 17 20 20 20
Raw TAF
KEWR 150836Z 1509/1612 VRB03KT 5SM -RA BR BKN006 OVC010
  TEMPO 1509/1513 3SM -RA BR OVC006
  FM151600 03006KT P6SM BKN015 BKN025
  FM151900 02010G16KT P6SM SCT035 BKN200
  FM160500 03010G17KT P6SM BKN050
  FM160900 03014G20KT 3SM -RA BR BKN015 OVC035


METAR Board
Radar Display
Forecast Discussion
For situational awareness. Not to be used for flight planning purposes.